Time;durP1;ratioP1;P1;durP2;ratioP2;P2;SDS_P1;SDS_P2;PMS_P1;PMS_P2;Temp;Humidity;BMP_temperature;BMP_pressure;BME280_temperature;BME280_humidity;BME280_pressure;Samples;Min_cycle;Max_cycle;Signal;HPM_P1;HPM_P2
2022/10/17 00:01:01;;;;;;;1.80;1.50;;;14.00;98.00;;;;;;5111587;28;20483;-68
2022/10/17 00:03:28;;;;;;;3.30;2.20;;;14.00;98.00;;;;;;5111995;28;20458;-68
2022/10/17 00:05:55;;;;;;;2.50;1.80;;;14.00;98.00;;;;;;5110467;28;20454;-68
2022/10/17 00:08:23;;;;;;;2.10;1.67;;;13.80;98.00;;;;;;5111526;28;20488;-68
2022/10/17 00:10:58;;;;;;;2.03;1.63;;;13.90;98.00;;;;;;5111386;28;20447;-68
2022/10/17 00:13:25;;;;;;;3.00;1.70;;;13.80;98.00;;;;;;5111802;28;20789;-68
2022/10/17 00:15:54;;;;;;;2.13;1.50;;;13.70;98.00;;;;;;5111845;28;20450;-68
2022/10/17 00:18:22;;;;;;;2.67;1.60;;;13.70;98.00;;;;;;5111865;28;20450;-68
2022/10/17 00:20:49;;;;;;;3.87;1.90;;;13.70;98.00;;;;;;5111786;28;20462;-68
2022/10/17 00:23:16;;;;;;;2.23;1.50;;;13.70;98.00;;;;;;5110406;28;20454;-68
2022/10/17 00:25:43;;;;;;;2.07;1.73;;;13.60;98.00;;;;;;5111518;28;20460;-68
2022/10/17 00:28:11;;;;;;;2.57;1.70;;;13.50;98.00;;;;;;5111581;28;20887;-68
2022/10/17 00:30:38;;;;;;;3.97;2.73;;;13.60;98.00;;;;;;5111636;28;20464;-67
2022/10/17 00:33:07;;;;;;;2.00;1.60;;;13.50;98.00;;;;;;5111713;28;20931;-68
2022/10/17 00:35:35;;;;;;;3.80;2.00;;;13.50;98.00;;;;;;5111487;28;20446;-68
2022/10/17 00:38:02;;;;;;;1.67;1.57;;;13.50;98.00;;;;;;5111220;28;20459;-68
2022/10/17 00:40:29;;;;;;;6.63;1.80;;;13.40;98.00;;;;;;5111413;28;20463;-68
2022/10/17 00:42:56;;;;;;;1.83;1.47;;;13.40;98.00;;;;;;5111276;28;20458;-68
2022/10/17 00:45:25;;;;;;;2.47;1.30;;;13.50;98.00;;;;;;5111321;28;20462;-68
2022/10/17 00:47:55;;;;;;;2.73;1.60;;;13.50;98.00;;;;;;5111207;28;20479;-68
2022/10/17 00:50:25;;;;;;;2.13;1.80;;;13.60;98.00;;;;;;5110053;28;20473;-67
2022/10/17 00:52:53;;;;;;;1.87;1.50;;;13.50;98.00;;;;;;5111156;28;20497;-68
2022/10/17 00:55:23;;;;;;;2.03;1.67;;;13.40;98.00;;;;;;5111219;28;20483;-68
2022/10/17 00:57:51;;;;;;;3.20;1.70;;;13.20;98.00;;;;;;5111116;28;20865;-68
2022/10/17 01:00:20;;;;;;;2.10;1.70;;;13.10;98.00;;;;;;5111280;28;20544;-68
2022/10/17 01:02:47;;;;;;;3.23;1.80;;;13.10;98.00;;;;;;5111357;28;20466;-68
2022/10/17 01:05:16;;;;;;;1.50;1.37;;;13.20;98.00;;;;;;5111117;28;20455;-68
2022/10/17 01:07:45;;;;;;;2.37;1.70;;;13.30;98.00;;;;;;5111251;28;20560;-68
2022/10/17 01:10:15;;;;;;;2.10;1.40;;;13.30;98.00;;;;;;5111106;28;20458;-68
2022/10/17 01:13:05;;;;;;;2.30;1.73;;;13.20;98.00;;;;;;5111305;28;20454;-68
2022/10/17 01:15:44;;;;;;;1.90;1.60;;;13.10;98.00;;;;;;5111222;28;20511;-68
2022/10/17 01:18:25;;;;;;;2.03;1.53;;;13.20;98.00;;;;;;5111283;28;20472;-68
2022/10/17 01:21:18;;;;;;;2.40;1.57;;;13.20;98.00;;;;;;5111224;28;20453;-68
2022/10/17 01:24:22;;;;;;;2.77;1.67;;;13.00;98.00;;;;;;5113679;28;20460;-68
2022/10/17 01:27:28;;;;;;;1.40;1.30;;;13.00;98.00;;;;;;5114347;28;20464;-68
2022/10/17 01:30:12;;;;;;;3.57;1.60;;;13.00;98.00;;;;;;5114587;28;20491;-68
2022/10/17 01:32:47;;;;;;;2.20;1.73;;;12.90;98.00;;;;;;5114676;28;20457;-68
2022/10/17 01:35:22;;;;;;;1.70;1.60;;;13.00;98.00;;;;;;5113205;28;20513;-67
2022/10/17 01:37:57;;;;;;;2.30;1.67;;;13.00;98.00;;;;;;5114445;28;20869;-68
2022/10/17 01:40:28;;;;;;;2.80;1.90;;;13.00;98.00;;;;;;5114282;28;20472;-68
2022/10/17 01:42:59;;;;;;;1.97;1.60;;;13.00;98.00;;;;;;5114219;28;20462;-67
2022/10/17 01:45:32;;;;;;;2.60;1.87;;;12.90;98.00;;;;;;5114282;28;20485;-68
2022/10/17 01:48:05;;;;;;;1.90;1.57;;;12.90;98.00;;;;;;5114118;28;20455;-68
2022/10/17 01:50:36;;;;;;;1.70;1.43;;;12.90;98.00;;;;;;5114159;28;20463;-67
2022/10/17 01:53:08;;;;;;;1.57;1.40;;;13.00;98.00;;;;;;5113884;28;20462;-68
2022/10/17 01:55:37;;;;;;;3.10;1.57;;;13.00;98.00;;;;;;5114054;28;20456;-68
2022/10/17 01:58:09;;;;;;;2.00;1.90;;;12.90;98.00;;;;;;5112543;28;20855;-67
2022/10/17 02:00:41;;;;;;;2.43;1.40;;;12.90;98.00;;;;;;5114055;28;20510;-68
2022/10/17 02:03:13;;;;;;;1.70;1.50;;;12.90;98.00;;;;;;5113906;28;20467;-68
2022/10/17 02:05:43;;;;;;;1.50;1.50;;;12.90;98.00;;;;;;5113886;28;20469;-68
2022/10/17 02:08:11;;;;;;;2.47;1.70;;;13.00;98.00;;;;;;5113617;28;20461;-68
2022/10/17 02:10:42;;;;;;;1.83;1.53;;;13.00;98.00;;;;;;5112792;28;20462;-67
2022/10/17 02:13:20;;;;;;;1.93;1.40;;;12.80;98.00;;;;;;5113751;28;20459;-67
2022/10/17 02:16:08;;;;;;;2.47;1.60;;;12.80;98.00;;;;;;5113940;28;20450;-67
2022/10/17 02:19:22;;;;;;;1.70;1.53;;;12.80;98.00;;;;;;5114147;28;20512;-68
2022/10/17 02:22:00;;;;;;;1.43;1.40;;;12.70;98.00;;;;;;5113044;28;20459;-68
2022/10/17 02:24:35;;;;;;;2.00;1.40;;;12.60;98.00;;;;;;5113613;28;20463;-68
2022/10/17 02:27:10;;;;;;;10.20;2.07;;;12.50;98.00;;;;;;5113333;28;20455;-68
2022/10/17 02:29:50;;;;;;;1.77;1.20;;;12.40;98.00;;;;;;5113368;28;20479;-68
2022/10/17 02:32:24;;;;;;;1.97;1.53;;;12.50;98.00;;;;;;5113324;28;20462;-68
2022/10/17 02:34:55;;;;;;;1.30;1.20;;;12.50;98.00;;;;;;5113246;28;20455;-68
2022/10/17 02:37:28;;;;;;;1.80;1.30;;;12.50;98.00;;;;;;5111584;28;20461;-68
2022/10/17 02:39:57;;;;;;;1.67;1.43;;;12.60;98.00;;;;;;5113230;28;20458;-68
2022/10/17 02:42:26;;;;;;;5.17;1.87;;;12.60;98.00;;;;;;5113211;28;20852;-68
2022/10/17 02:44:58;;;;;;;1.60;1.50;;;12.60;98.00;;;;;;5113216;27;20462;-68
2022/10/17 02:47:29;;;;;;;1.90;1.60;;;12.70;98.00;;;;;;5113247;28;20458;-67
2022/10/17 02:49:58;;;;;;;1.60;1.40;;;13.00;98.00;;;;;;5113363;28;20492;-67
2022/10/17 02:52:32;;;;;;;1.50;1.30;;;12.80;98.00;;;;;;5112898;28;20965;-68
2022/10/17 02:55:06;;;;;;;1.70;1.37;;;12.60;98.00;;;;;;5112963;28;20460;-67
2022/10/17 02:57:38;;;;;;;1.50;1.40;;;12.60;98.00;;;;;;5112934;28;20473;-68
2022/10/17 03:00:09;;;;;;;2.07;1.67;;;12.70;98.00;;;;;;5112810;28;20975;-68
2022/10/17 03:02:40;;;;;;;2.70;1.67;;;12.80;98.00;;;;;;5112839;28;20456;-67
2022/10/17 03:05:09;;;;;;;2.63;1.70;;;12.60;98.00;;;;;;5112634;28;20469;-67
2022/10/17 03:07:38;;;;;;;5.30;2.07;;;12.50;98.00;;;;;;5112509;28;20469;-68
2022/10/17 03:10:06;;;;;;;1.70;1.30;;;12.50;98.00;;;;;;5112487;28;20890;-67
2022/10/17 03:12:33;;;;;;;2.70;1.40;;;12.60;98.00;;;;;;5112645;28;20464;-67
2022/10/17 03:15:00;;;;;;;5.83;2.80;;;12.30;98.00;;;;;;5111408;28;20463;-67
2022/10/17 03:17:27;;;;;;;2.17;1.50;;;12.30;98.00;;;;;;5112422;28;20456;-67
2022/10/17 03:19:56;;;;;;;2.63;1.63;;;12.20;98.00;;;;;;5112744;28;20483;-68
2022/10/17 03:22:23;;;;;;;2.87;1.60;;;12.30;98.00;;;;;;5112821;28;20454;-68
2022/10/17 03:24:51;;;;;;;1.50;1.33;;;12.30;98.00;;;;;;5112465;28;20778;-67
2022/10/17 03:27:19;;;;;;;1.50;1.30;;;12.30;98.00;;;;;;5112232;28;20952;-67
2022/10/17 03:29:46;;;;;;;2.00;1.63;;;12.20;98.00;;;;;;5112215;28;20488;-68
2022/10/17 03:32:13;;;;;;;1.60;1.30;;;12.40;98.00;;;;;;5112160;28;20829;-68
2022/10/17 03:34:40;;;;;;;1.83;1.37;;;12.50;98.00;;;;;;5112490;28;20453;-67
2022/10/17 03:37:07;;;;;;;2.37;1.50;;;12.40;98.00;;;;;;5112105;28;20527;-67
2022/10/17 03:39:34;;;;;;;2.07;1.77;;;12.20;98.00;;;;;;5112013;28;20461;-67
2022/10/17 03:42:03;;;;;;;2.47;1.80;;;12.20;98.00;;;;;;5110980;28;20449;-68
2022/10/17 03:44:30;;;;;;;2.03;1.47;;;12.20;98.00;;;;;;5112270;28;20464;-67
2022/10/17 03:46:57;;;;;;;1.57;1.40;;;12.20;98.00;;;;;;5111527;28;20522;-68
2022/10/17 03:49:24;;;;;;;2.03;1.30;;;12.10;98.00;;;;;;5111786;28;20488;-67
2022/10/17 03:51:51;;;;;;;1.40;1.23;;;12.10;98.00;;;;;;5111838;28;20502;-68
2022/10/17 03:54:19;;;;;;;1.93;1.40;;;12.10;98.00;;;;;;5110719;28;20469;-67
2022/10/17 03:56:46;;;;;;;1.77;1.50;;;12.20;98.00;;;;;;5093822;28;20468;-67
2022/10/17 03:59:15;;;;;;;7.33;2.00;;;12.30;98.00;;;;;;5111699;28;20472;-67
2022/10/17 04:01:43;;;;;;;1.70;1.50;;;12.50;98.00;;;;;;5111978;28;20469;-68
2022/10/17 04:04:11;;;;;;;3.00;1.70;;;12.60;98.00;;;;;;5111803;28;20463;-68
2022/10/17 04:06:38;;;;;;;1.80;1.43;;;12.50;98.00;;;;;;5111930;28;20452;-68
2022/10/17 04:09:06;;;;;;;1.83;1.37;;;12.40;98.00;;;;;;5110254;28;20538;-67
2022/10/17 04:11:34;;;;;;;1.30;1.13;;;12.20;98.00;;;;;;5110388;28;20943;-68
2022/10/17 04:14:01;;;;;;;2.17;1.60;;;12.10;98.00;;;;;;5111704;28;20802;-68
2022/10/17 04:16:29;;;;;;;1.60;1.40;;;12.10;98.00;;;;;;5110598;28;20563;-67
2022/10/17 04:18:58;;;;;;;1.77;1.40;;;12.00;98.00;;;;;;5111711;28;20451;-67
2022/10/17 04:21:27;;;;;;;2.10;1.50;;;11.90;98.00;;;;;;5111851;28;20962;-68
2022/10/17 04:23:55;;;;;;;1.97;1.60;;;11.80;98.00;;;;;;5111835;28;20525;-67
2022/10/17 04:26:22;;;;;;;5.73;1.63;;;11.80;98.00;;;;;;5111534;28;20872;-67
2022/10/17 04:28:49;;;;;;;2.17;1.60;;;11.70;98.00;;;;;;5111603;28;20451;-67
2022/10/17 04:31:17;;;;;;;1.60;1.50;;;11.70;98.00;;;;;;5110252;28;20863;-67
2022/10/17 04:33:47;;;;;;;3.80;1.77;;;11.80;98.00;;;;;;5111574;28;20830;-67
2022/10/17 04:36:17;;;;;;;3.20;2.03;;;11.70;98.00;;;;;;5110591;28;20449;-68
2022/10/17 04:38:44;;;;;;;2.47;1.60;;;11.80;98.00;;;;;;5111491;28;20834;-67
2022/10/17 04:41:13;;;;;;;1.90;1.60;;;11.80;98.00;;;;;;5111212;28;20456;-67
2022/10/17 04:43:40;;;;;;;2.60;1.40;;;11.70;98.00;;;;;;5111590;28;20473;-68
2022/10/17 04:46:09;;;;;;;1.93;1.40;;;11.70;98.00;;;;;;5111220;28;20458;-67
2022/10/17 04:48:37;;;;;;;2.57;1.60;;;11.80;98.00;;;;;;5111540;28;20505;-67
2022/10/17 04:51:08;;;;;;;7.30;1.87;;;11.70;98.00;;;;;;5110043;28;20486;-67
2022/10/17 04:53:36;;;;;;;2.17;1.60;;;11.60;98.00;;;;;;5111405;28;20451;-67
2022/10/17 04:56:09;;;;;;;2.13;1.53;;;11.50;98.00;;;;;;5111278;28;20458;-68
2022/10/17 04:58:37;;;;;;;1.53;1.40;;;11.40;98.00;;;;;;5113521;28;20835;-67
2022/10/17 05:01:08;;;;;;;1.30;1.20;;;11.50;98.00;;;;;;5115171;28;21000;-67
2022/10/17 05:03:36;;;;;;;1.97;1.37;;;11.50;98.00;;;;;;5115164;28;20803;-67
2022/10/17 05:06:09;;;;;;;1.67;1.50;;;11.60;98.00;;;;;;5115111;28;20493;-67
2022/10/17 05:08:36;;;;;;;2.13;1.60;;;11.50;98.00;;;;;;5115071;28;20801;-67
2022/10/17 05:11:04;;;;;;;1.40;1.30;;;11.50;98.00;;;;;;5114794;28;20852;-68
2022/10/17 05:13:32;;;;;;;1.20;1.10;;;11.40;98.00;;;;;;5115157;28;20452;-67
2022/10/17 05:16:00;;;;;;;1.87;1.37;;;11.40;98.00;;;;;;5114918;28;20461;-67
2022/10/17 05:18:28;;;;;;;1.80;1.80;;;11.60;98.00;;;;;;5114787;28;20554;-67
2022/10/17 05:20:56;;;;;;;3.87;1.37;;;11.70;98.00;;;;;;5114923;28;20449;-67
2022/10/17 05:23:24;;;;;;;1.70;1.40;;;11.70;98.00;;;;;;5114933;28;20978;-67
2022/10/17 05:25:55;;;;;;;1.90;1.50;;;11.70;98.00;;;;;;5114921;28;20448;-67
2022/10/17 05:28:22;;;;;;;2.13;1.53;;;11.70;98.00;;;;;;5114672;28;20551;-68
2022/10/17 05:30:50;;;;;;;4.43;1.70;;;11.70;98.00;;;;;;5114660;28;20527;-67
2022/10/17 05:33:17;;;;;;;1.63;1.63;;;11.70;98.00;;;;;;5113247;28;20458;-68
2022/10/17 05:35:44;;;;;;;2.37;1.53;;;11.70;98.00;;;;;;5114646;28;20467;-67
2022/10/17 05:38:11;;;;;;;1.97;1.70;;;11.70;98.00;;;;;;5114284;28;20451;-67
2022/10/17 05:40:40;;;;;;;2.30;1.43;;;11.80;98.00;;;;;;5114432;28;20650;-67
2022/10/17 05:43:07;;;;;;;8.30;2.07;;;11.70;98.00;;;;;;5114404;28;20458;-68
2022/10/17 05:45:35;;;;;;;2.17;1.60;;;11.70;98.00;;;;;;5114279;28;20459;-67
2022/10/17 05:48:02;;;;;;;1.67;1.50;;;11.70;98.00;;;;;;5114182;28;20460;-68
2022/10/17 05:50:29;;;;;;;3.40;1.93;;;11.70;98.00;;;;;;5114139;28;20570;-67
2022/10/17 05:52:56;;;;;;;1.80;1.50;;;11.70;98.00;;;;;;5112977;28;20532;-67
2022/10/17 05:55:23;;;;;;;1.93;1.60;;;11.90;98.00;;;;;;5114105;28;20461;-68
2022/10/17 05:57:52;;;;;;;1.40;1.20;;;11.90;98.00;;;;;;5113756;28;20470;-67
2022/10/17 06:00:20;;;;;;;4.17;2.23;;;11.90;98.00;;;;;;5113886;28;20457;-68
2022/10/17 06:02:47;;;;;;;4.37;1.97;;;11.80;98.00;;;;;;5113936;28;20464;-67
2022/10/17 06:05:15;;;;;;;1.90;1.50;;;11.70;98.00;;;;;;5113953;28;21001;-67
2022/10/17 06:07:42;;;;;;;4.90;2.33;;;11.60;98.00;;;;;;5113998;28;20462;-68
2022/10/17 06:10:11;;;;;;;1.40;1.40;;;11.70;98.00;;;;;;5113323;28;20486;-66
2022/10/17 06:12:39;;;;;;;2.10;1.60;;;11.70;98.00;;;;;;5113860;28;20466;-65
2022/10/17 06:15:09;;;;;;;2.67;1.97;;;11.70;98.00;;;;;;5113799;28;20867;-65
2022/10/17 06:17:37;;;;;;;2.57;1.70;;;11.70;98.00;;;;;;5113513;28;21076;-65
2022/10/17 06:20:04;;;;;;;3.20;1.70;;;11.80;98.00;;;;;;5113617;28;20462;-66
2022/10/17 06:22:33;;;;;;;2.53;1.70;;;11.70;98.00;;;;;;5113800;28;20464;-65
2022/10/17 06:25:00;;;;;;;3.70;1.60;;;11.80;98.00;;;;;;5113874;28;20466;-65
2022/10/17 06:27:27;;;;;;;5.53;1.83;;;11.70;98.00;;;;;;5113506;28;20475;-66
2022/10/17 06:29:54;;;;;;;2.60;2.00;;;11.90;98.00;;;;;;5113388;27;20479;-65
2022/10/17 06:32:23;;;;;;;4.97;2.73;;;11.90;98.00;;;;;;5112018;28;20462;-65
2022/10/17 06:34:51;;;;;;;5.40;3.07;;;11.90;98.00;;;;;;5113627;28;20468;-65
2022/10/17 06:37:19;;;;;;;4.10;2.90;;;11.90;98.00;;;;;;5113210;28;20819;-65
2022/10/17 06:39:46;;;;;;;4.20;2.73;;;11.80;98.00;;;;;;5113384;28;20878;-66
2022/10/17 06:42:13;;;;;;;4.70;2.60;;;11.80;98.00;;;;;;5111922;28;20465;-65
2022/10/17 06:44:41;;;;;;;4.50;2.50;;;12.00;98.00;;;;;;5113112;28;20490;-65
2022/10/17 06:47:09;;;;;;;3.57;2.40;;;12.20;98.00;;;;;;5113059;28;20869;-65
2022/10/17 06:49:38;;;;;;;2.23;1.87;;;12.20;98.00;;;;;;5113084;28;20941;-65
2022/10/17 06:52:06;;;;;;;5.97;2.93;;;12.30;98.00;;;;;;5112949;28;20476;-65
2022/10/17 06:54:36;;;;;;;2.23;2.03;;;12.20;98.00;;;;;;5111760;28;20899;-65
2022/10/17 06:57:03;;;;;;;4.73;2.70;;;12.20;98.00;;;;;;5112895;28;20463;-65
2022/10/17 06:59:30;;;;;;;4.47;2.13;;;12.10;98.00;;;;;;5112734;28;20471;-65
2022/10/17 07:01:57;;;;;;;2.90;2.23;;;12.10;98.00;;;;;;5112877;28;20819;-65
2022/10/17 07:04:24;;;;;;;3.47;2.20;;;12.10;98.00;;;;;;5111551;28;20473;-65
2022/10/17 07:06:53;;;;;;;3.57;2.60;;;12.20;98.00;;;;;;5112753;28;20449;-65
2022/10/17 07:09:21;;;;;;;3.30;2.00;;;12.30;98.00;;;;;;5112710;28;20471;-65
2022/10/17 07:11:50;;;;;;;2.80;2.00;;;12.40;98.00;;;;;;5112612;28;20484;-65
2022/10/17 07:14:17;;;;;;;3.73;2.37;;;12.40;98.00;;;;;;5112705;28;20460;-65
2022/10/17 07:16:44;;;;;;;4.20;2.03;;;12.50;98.00;;;;;;5112740;28;20479;-65
2022/10/17 07:19:11;;;;;;;2.90;1.80;;;12.60;98.00;;;;;;5112489;28;20504;-65
2022/10/17 07:21:38;;;;;;;2.80;1.97;;;12.70;98.00;;;;;;5110582;28;20491;-65
2022/10/17 07:24:07;;;;;;;3.40;2.47;;;12.70;98.00;;;;;;5112538;28;20511;-65
2022/10/17 07:26:34;;;;;;;4.80;1.97;;;12.70;98.00;;;;;;5111338;28;20462;-65
2022/10/17 07:29:01;;;;;;;3.20;2.00;;;12.70;98.00;;;;;;5112699;28;20455;-65
2022/10/17 07:31:28;;;;;;;3.60;2.10;;;12.80;98.00;;;;;;5112238;28;20487;-66
2022/10/17 07:33:55;;;;;;;2.97;2.10;;;12.80;98.00;;;;;;5112786;27;20452;-66
2022/10/17 07:36:22;;;;;;;3.80;2.37;;;12.80;98.00;;;;;;5123586;27;20648;-66
2022/10/17 07:38:49;;;;;;;2.63;2.07;;;12.80;98.00;;;;;;5125276;27;20457;-66
2022/10/17 07:41:19;;;;;;;2.37;2.00;;;12.90;98.00;;;;;;5114696;27;20459;-65
2022/10/17 07:43:48;;;;;;;2.40;1.80;;;12.90;98.00;;;;;;5125304;27;20591;-65
2022/10/17 07:46:15;;;;;;;6.40;1.93;;;13.00;98.00;;;;;;5115469;27;20978;-64
2022/10/17 07:48:42;;;;;;;3.80;2.30;;;13.10;98.00;;;;;;5119224;27;20514;-64
2022/10/17 07:51:10;;;;;;;3.90;2.33;;;13.30;98.00;;;;;;5113532;27;20496;-65
2022/10/17 07:53:38;;;;;;;2.40;1.83;;;13.70;98.00;;;;;;5110800;27;20448;-65
2022/10/17 07:56:06;;;;;;;3.00;1.97;;;13.90;98.00;;;;;;5124376;27;20472;-65
2022/10/17 07:58:36;;;;;;;3.13;1.90;;;14.00;98.00;;;;;;5128062;27;20540;-65
2022/10/17 08:01:04;;;;;;;3.67;2.13;;;14.00;98.00;;;;;;5118830;27;20926;-65
2022/10/17 08:03:32;;;;;;;11.77;1.90;;;14.20;98.00;;;;;;5119369;27;20469;-65
2022/10/17 08:05:59;;;;;;;2.37;1.73;;;14.30;98.00;;;;;;5115381;27;20460;-66
2022/10/17 08:08:27;;;;;;;2.90;2.30;;;14.40;98.00;;;;;;5120202;27;20450;-65
2022/10/17 08:10:55;;;;;;;3.80;2.07;;;14.40;98.00;;;;;;5110820;28;20501;-65
2022/10/17 08:13:22;;;;;;;2.67;2.17;;;14.50;98.00;;;;;;5123058;28;20448;-65
2022/10/17 08:15:50;;;;;;;2.73;1.70;;;14.60;98.00;;;;;;5128293;28;20536;-65
2022/10/17 08:18:17;;;;;;;4.23;2.30;;;14.70;98.00;;;;;;5128173;28;20464;-65
2022/10/17 08:20:45;;;;;;;3.10;2.00;;;14.80;98.00;;;;;;5125593;28;20458;-65
2022/10/17 08:23:12;;;;;;;2.20;1.70;;;15.00;98.00;;;;;;5122831;28;20463;-65
2022/10/17 08:25:39;;;;;;;10.60;1.97;;;15.20;98.00;;;;;;5129287;27;21780;-65
2022/10/17 08:28:07;;;;;;;3.17;2.10;;;15.40;98.00;;;;;;5128438;27;21006;-65
2022/10/17 08:30:35;;;;;;;3.50;1.90;;;15.50;98.00;;;;;;5107572;28;20500;-65
2022/10/17 08:33:03;;;;;;;4.97;1.83;;;15.50;98.00;;;;;;5128631;27;20468;-65
2022/10/17 08:35:30;;;;;;;3.10;1.73;;;15.60;98.00;;;;;;5117876;27;20528;-65
2022/10/17 08:38:00;;;;;;;2.67;1.70;;;15.70;98.00;;;;;;5123651;27;20454;-66
2022/10/17 08:40:32;;;;;;;3.30;1.83;;;15.90;98.00;;;;;;5129620;27;20550;-65
2022/10/17 08:43:28;;;;;;;2.50;1.93;;;16.00;98.00;;;;;;5117384;27;20450;-65
2022/10/17 08:46:01;;;;;;;3.40;2.20;;;16.10;98.00;;;;;;5115748;27;20816;-66
2022/10/17 08:48:34;;;;;;;3.53;2.10;;;16.30;98.00;;;;;;5123307;27;20508;-66
2022/10/17 08:51:06;;;;;;;2.43;1.70;;;16.60;98.00;;;;;;5120826;27;20486;-69
2022/10/17 08:53:38;;;;;;;2.00;1.63;;;16.70;98.00;;;;;;5132275;27;20462;-67
2022/10/17 08:56:14;;;;;;;1.87;1.50;;;16.90;98.00;;;;;;5122797;27;20485;-63
2022/10/17 08:58:41;;;;;;;2.23;1.63;;;17.00;98.00;;;;;;5112985;28;20474;-62
2022/10/17 09:01:22;;;;;;;1.93;1.50;;;17.40;98.00;;;;;;5115909;27;20466;-69
2022/10/17 09:04:16;;;;;;;1.67;1.43;;;17.90;98.00;;;;;;5115183;27;20457;-62
2022/10/17 09:06:50;;;;;;;2.10;1.70;;;18.40;98.00;;;;;;5113864;28;20869;-64
2022/10/17 09:09:27;;;;;;;2.07;1.80;;;18.40;98.00;;;;;;5113851;28;20458;-64
2022/10/17 09:12:05;;;;;;;3.77;2.07;;;18.40;98.00;;;;;;5115099;28;20857;-64
2022/10/17 09:14:58;;;;;;;2.07;1.80;;;18.40;98.00;;;;;;5114976;28;20450;-65
2022/10/17 09:17:34;;;;;;;3.17;1.90;;;18.50;98.00;;;;;;5114671;28;20458;-63
2022/10/17 09:20:09;;;;;;;2.23;1.80;;;18.70;98.00;;;;;;5114998;28;20459;-64
2022/10/17 09:22:43;;;;;;;2.53;1.93;;;18.80;98.00;;;;;;5114797;28;20541;-64
2022/10/17 09:25:13;;;;;;;3.20;1.80;;;18.90;98.00;;;;;;5114748;28;20454;-62
2022/10/17 09:27:43;;;;;;;2.20;1.90;;;19.00;98.00;;;;;;5113526;28;20451;-63
2022/10/17 09:30:35;;;;;;;3.40;2.10;;;19.00;98.00;;;;;;5107931;28;20456;-63
2022/10/17 09:33:09;;;;;;;3.10;1.90;;;19.20;98.00;;;;;;5114791;28;20463;-63
2022/10/17 09:35:38;;;;;;;2.63;1.90;;;19.30;98.00;;;;;;5114862;28;20458;-64
2022/10/17 09:38:07;;;;;;;2.10;1.73;;;19.60;98.00;;;;;;5114531;28;20462;-63
2022/10/17 09:40:35;;;;;;;3.40;1.83;;;19.80;98.00;;;;;;5114481;28;20443;-63
2022/10/17 09:43:05;;;;;;;2.50;1.90;;;19.90;98.00;;;;;;5113466;28;20971;-62
2022/10/17 09:45:37;;;;;;;4.27;2.10;;;20.00;98.00;;;;;;5114486;28;20533;-65
2022/10/17 09:48:11;;;;;;;3.10;2.03;;;20.10;98.00;;;;;;5113050;28;20455;-63
2022/10/17 09:50:41;;;;;;;5.00;2.43;;;20.10;98.00;;;;;;5114300;28;20455;-64
2022/10/17 09:53:14;;;;;;;2.63;1.90;;;20.20;98.00;;;;;;5114016;28;20447;-63
2022/10/17 09:55:47;;;;;;;2.30;2.00;;;20.40;98.00;;;;;;5114302;28;20945;-63
2022/10/17 09:58:15;;;;;;;2.60;1.93;;;20.60;98.00;;;;;;5113749;28;20462;-63
2022/10/17 10:00:44;;;;;;;2.90;2.20;;;20.80;98.00;;;;;;5113946;28;20463;-63
2022/10/17 10:03:15;;;;;;;21.43;1.80;;;21.00;98.00;;;;;;5113848;28;20971;-63
2022/10/17 10:05:59;;;;;;;2.20;1.57;;;21.10;98.00;;;;;;5114029;28;20469;-64
2022/10/17 10:08:29;;;;;;;2.80;2.10;;;21.30;98.00;;;;;;5113841;28;20869;-64
2022/10/17 10:11:03;;;;;;;4.43;2.13;;;21.40;98.00;;;;;;5113741;28;20586;-64
2022/10/17 10:13:32;;;;;;;2.67;2.20;;;21.50;98.00;;;;;;5113827;28;20537;-64
2022/10/17 10:16:16;;;;;;;2.17;1.77;;;21.60;98.00;;;;;;5113823;28;20501;-63
2022/10/17 10:18:44;;;;;;;2.10;1.80;;;21.60;98.00;;;;;;5113765;28;20451;-64
2022/10/17 10:21:15;;;;;;;2.50;2.07;;;21.70;98.00;;;;;;5113682;28;20453;-63
2022/10/17 10:24:02;;;;;;;3.03;1.80;;;21.70;98.00;;;;;;5113546;28;20529;-64
2022/10/17 10:26:36;;;;;;;3.63;2.23;;;21.80;98.00;;;;;;5113577;28;20474;-64
2022/10/17 10:29:06;;;;;;;2.20;1.80;;;21.90;98.00;;;;;;5113624;28;20459;-63
2022/10/17 10:31:36;;;;;;;2.60;2.00;;;21.90;98.00;;;;;;5113719;28;20490;-63
2022/10/17 10:34:16;;;;;;;2.47;1.97;;;22.00;98.00;;;;;;5113597;28;20459;-65
2022/10/17 10:36:55;;;;;;;3.30;1.97;;;22.10;98.00;;;;;;5113561;28;20451;-63
2022/10/17 10:39:32;;;;;;;3.17;2.00;;;22.30;98.00;;;;;;5113332;28;20459;-63
2022/10/17 10:42:02;;;;;;;2.30;1.90;;;22.60;98.00;;;;;;5113297;28;20458;-63
2022/10/17 10:44:32;;;;;;;3.20;2.20;;;22.80;98.00;;;;;;5113472;28;20508;-63
2022/10/17 10:47:24;;;;;;;3.83;2.43;;;22.90;98.00;;;;;;5113152;28;20824;-62
2022/10/17 10:49:54;;;;;;;2.90;2.10;;;22.90;98.00;;;;;;5093980;28;20447;-63
2022/10/17 10:52:33;;;;;;;3.17;1.83;;;23.00;98.00;;;;;;5112951;28;20487;-63
2022/10/17 10:55:22;;;;;;;8.00;2.00;;;23.10;98.00;;;;;;5113014;28;20454;-63
2022/10/17 10:57:53;;;;;;;2.53;2.00;;;23.30;98.00;;;;;;5112854;28;20474;-65
2022/10/17 11:00:24;;;;;;;2.60;2.03;;;23.40;98.00;;;;;;5113019;28;20459;-64
2022/10/17 11:02:59;;;;;;;2.07;1.83;;;23.60;98.00;;;;;;5112853;28;20443;-64
2022/10/17 11:05:41;;;;;;;2.30;1.80;;;23.60;98.00;;;;;;5112682;28;20451;-67
2022/10/17 11:08:20;;;;;;;3.40;2.03;;;23.80;98.00;;;;;;5112309;28;20822;-65
2022/10/17 11:11:12;;;;;;;8.70;2.07;;;24.00;98.00;;;;;;5112606;28;20891;-65
2022/10/17 11:13:44;;;;;;;2.67;2.10;;;24.30;98.00;;;;;;5112706;28;20897;-64
2022/10/17 11:16:26;;;;;;;3.40;2.00;;;24.50;98.00;;;;;;5112709;28;20459;-65
2022/10/17 11:18:58;;;;;;;2.00;1.90;;;24.70;98.00;;;;;;5112466;28;20868;-64
2022/10/17 11:21:34;;;;;;;5.03;2.20;;;25.00;98.00;;;;;;5112549;28;20495;-64
2022/10/17 11:24:12;;;;;;;2.13;1.83;;;25.30;98.00;;;;;;5112418;28;20447;-63
2022/10/17 11:26:50;;;;;;;6.73;2.30;;;25.50;98.00;;;;;;5112658;28;20454;-64
2022/10/17 11:29:17;;;;;;;3.40;2.50;;;25.70;98.00;;;;;;5112380;28;20466;-64
2022/10/17 11:31:56;;;;;;;2.07;1.80;;;25.80;98.00;;;;;;5112526;28;20490;-64
2022/10/17 11:34:26;;;;;;;3.00;2.20;;;26.20;98.00;;;;;;5112513;28;20458;-66
2022/10/17 11:37:00;;;;;;;2.97;1.97;;;26.70;98.00;;;;;;5112246;28;20466;-65
2022/10/17 11:39:39;;;;;;;2.87;1.87;;;27.00;98.00;;;;;;5112157;28;20471;-66
2022/10/17 11:42:12;;;;;;;3.67;1.87;;;27.10;98.00;;;;;;5112168;28;20458;-65
2022/10/17 11:44:41;;;;;;;2.50;1.93;;;27.30;98.00;;;;;;5112213;28;20455;-66
2022/10/17 11:47:17;;;;;;;2.10;1.80;;;27.40;98.00;;;;;;5111997;28;20466;-65
2022/10/17 11:49:48;;;;;;;2.40;1.60;;;27.50;96.00;;;;;;5112201;28;20450;-66
2022/10/17 11:52:28;;;;;;;3.40;1.93;;;27.80;94.60;;;;;;5111744;28;20479;-67
2022/10/17 11:55:01;;;;;;;2.53;1.90;;;28.00;98.00;;;;;;5112084;28;20822;-65
2022/10/17 11:57:42;;;;;;;7.00;2.70;;;28.20;98.00;;;;;;5111656;28;20980;-66
2022/10/17 12:00:43;;;;;;;2.20;1.63;;;28.50;96.40;;;;;;5111862;28;20507;-66
2022/10/17 12:03:24;;;;;;;2.13;1.90;;;28.80;96.10;;;;;;5067859;27;20453;-66
2022/10/17 12:05:59;;;;;;;3.03;1.87;;;28.90;97.30;;;;;;5111638;28;20972;-66
2022/10/17 12:08:36;;;;;;;2.07;1.80;;;29.10;95.80;;;;;;5110295;28;20473;-65
2022/10/17 12:11:15;;;;;;;2.83;1.80;;;29.30;89.80;;;;;;5111730;28;20490;-65
2022/10/17 12:13:50;;;;;;;4.83;2.10;;;29.40;92.40;;;;;;5111904;28;20447;-67
2022/10/17 12:16:48;;;;;;;2.07;1.60;;;29.60;91.30;;;;;;5112003;28;20944;-67
2022/10/17 12:19:31;;;;;;;4.40;1.77;;;29.80;88.60;;;;;;5111688;28;20461;-66
2022/10/17 12:22:18;;;;;;;2.20;1.90;;;29.80;89.80;;;;;;5111658;28;20469;-65
2022/10/17 12:24:53;;;;;;;2.83;1.87;;;29.70;85.30;;;;;;5111783;28;20485;-66
2022/10/17 12:27:49;;;;;;;9.37;2.00;;;29.60;87.10;;;;;;5111751;28;20951;-66
2022/10/17 12:30:22;;;;;;;1.93;1.60;;;29.80;85.90;;;;;;5111935;28;20561;-66
2022/10/17 12:33:21;;;;;;;2.60;1.90;;;29.70;84.00;;;;;;5111871;28;20845;-66
2022/10/17 12:35:50;;;;;;;6.60;2.23;;;29.80;82.90;;;;;;5111980;28;20520;-65
2022/10/17 12:38:24;;;;;;;2.53;1.80;;;30.00;83.70;;;;;;5111319;28;20490;-66
2022/10/17 12:40:57;;;;;;;1.90;1.60;;;30.00;81.10;;;;;;5111633;28;20459;-67
2022/10/17 12:43:43;;;;;;;2.57;1.67;;;30.20;81.10;;;;;;5111530;28;20458;-65
2022/10/17 12:46:11;;;;;;;2.47;2.00;;;30.20;78.00;;;;;;5111508;28;20976;-66
2022/10/17 12:49:03;;;;;;;2.47;1.87;;;30.20;80.60;;;;;;5110225;28;21001;-66
2022/10/17 12:51:50;;;;;;;2.40;1.70;;;30.50;80.10;;;;;;5110138;28;20451;-66
2022/10/17 12:54:17;;;;;;;1.80;1.70;;;30.70;81.20;;;;;;5109946;28;20964;-66
2022/10/17 12:56:47;;;;;;;3.53;2.10;;;31.00;78.70;;;;;;5111504;28;20454;-67
2022/10/17 12:59:19;;;;;;;2.57;1.57;;;31.00;78.80;;;;;;5111061;28;20490;-67
2022/10/17 13:01:51;;;;;;;2.57;2.00;;;31.40;81.50;;;;;;5111577;28;20976;-66
2022/10/17 13:04:19;;;;;;;2.50;2.00;;;31.60;80.90;;;;;;5111132;28;20822;-66
2022/10/17 13:06:48;;;;;;;2.10;1.80;;;31.70;78.60;;;;;;5110213;28;20455;-65
2022/10/17 13:09:25;;;;;;;2.63;2.00;;;31.70;81.20;;;;;;5111035;28;20447;-66